createdAt,value
2017-08-14T00:01:51.524Z,12.33
2017-08-14T00:04:19.912Z,12.00
2017-08-14T00:06:47.474Z,14.10
2017-08-14T00:09:15.053Z,15.50
2017-08-14T00:11:42.661Z,13.10
2017-08-14T00:14:10.238Z,13.57
2017-08-14T00:16:37.836Z,18.03
2017-08-14T00:19:06.190Z,14.10
2017-08-14T00:21:33.776Z,10.30
2017-08-14T00:24:01.385Z,13.60
2017-08-14T00:26:28.959Z,9.57
2017-08-14T00:28:56.581Z,11.77
2017-08-14T00:31:24.141Z,12.23
2017-08-14T00:33:51.710Z,15.47
2017-08-14T00:36:19.308Z,14.37
2017-08-14T00:38:46.872Z,16.00
2017-08-14T00:41:14.469Z,14.33
2017-08-14T00:43:42.033Z,13.80
2017-08-14T00:46:09.632Z,11.40
2017-08-14T00:48:37.236Z,14.13
2017-08-14T00:51:04.830Z,12.83
2017-08-14T00:53:32.417Z,12.77
2017-08-14T00:55:59.992Z,10.67
2017-08-14T00:58:27.545Z,11.93
2017-08-14T01:00:55.132Z,11.90
2017-08-14T01:03:22.721Z,11.60
2017-08-14T01:05:51.085Z,12.40
2017-08-14T01:08:18.669Z,11.00
2017-08-14T01:10:46.269Z,11.47
2017-08-14T01:13:13.853Z,12.90
2017-08-14T01:15:41.414Z,11.70
2017-08-14T01:18:09.023Z,22.63
2017-08-14T01:20:37.370Z,13.50
2017-08-14T01:23:04.940Z,10.77
2017-08-14T01:25:32.543Z,17.47
2017-08-14T01:28:00.132Z,27.93
2017-08-14T01:30:27.734Z,14.60
2017-08-14T01:32:55.314Z,16.50
2017-08-14T01:35:22.880Z,17.37
2017-08-14T01:37:51.252Z,19.33
2017-08-14T01:40:19.598Z,18.13
2017-08-14T01:42:47.206Z,12.17
2017-08-14T01:45:14.774Z,17.93
2017-08-14T01:47:42.347Z,18.20
2017-08-14T01:50:09.955Z,18.40
2017-08-14T01:52:37.544Z,15.93
2017-08-14T01:55:05.937Z,18.00
2017-08-14T01:57:33.525Z,16.77
2017-08-14T02:00:01.110Z,16.30
2017-08-14T02:02:28.707Z,15.93
2017-08-14T02:04:56.309Z,22.07
2017-08-14T02:07:23.918Z,17.37
2017-08-14T02:09:51.506Z,24.20
2017-08-14T02:12:19.100Z,22.10
2017-08-14T02:14:46.695Z,22.13
2017-08-14T02:17:14.266Z,25.50
2017-08-14T02:19:41.841Z,24.17
2017-08-14T02:22:09.384Z,34.83
2017-08-14T02:24:36.931Z,24.90
2017-08-14T02:27:04.491Z,21.90
2017-08-14T02:29:32.046Z,26.57
2017-08-14T02:31:59.599Z,28.27
2017-08-14T02:34:27.196Z,25.83
2017-08-14T02:36:54.752Z,35.83
2017-08-14T02:39:22.302Z,26.20
2017-08-14T02:41:49.883Z,34.40
2017-08-14T02:44:17.428Z,31.10
2017-08-14T02:46:44.995Z,31.93
2017-08-14T02:49:12.576Z,38.10
2017-08-14T02:51:40.131Z,24.90
2017-08-14T02:54:07.671Z,29.63
2017-08-14T02:56:35.256Z,45.73
2017-08-14T02:59:02.789Z,45.57
2017-08-14T03:01:30.346Z,37.97
2017-08-14T03:03:57.909Z,36.73
2017-08-14T03:06:25.445Z,38.43
2017-08-14T03:08:53.279Z,36.80
2017-08-14T03:11:20.856Z,33.83
2017-08-14T03:13:48.409Z,33.60
2017-08-14T03:16:15.940Z,41.63
2017-08-14T03:18:43.510Z,30.30
2017-08-14T03:21:11.044Z,33.23
2017-08-14T03:23:38.585Z,29.53
2017-08-14T03:26:06.923Z,34.25
2017-08-14T03:28:34.470Z,34.33
2017-08-14T03:31:02.020Z,29.00
2017-08-14T03:33:29.589Z,34.77
2017-08-14T03:35:57.123Z,32.03
2017-08-14T03:38:24.677Z,31.07
2017-08-14T03:40:53.018Z,33.50
2017-08-14T03:43:20.577Z,30.27
2017-08-14T03:45:48.116Z,37.83
2017-08-14T03:48:15.692Z,36.83
2017-08-14T03:50:43.235Z,29.13
2017-08-14T03:53:10.776Z,36.07
2017-08-14T03:55:38.347Z,32.50
2017-08-14T03:58:05.900Z,36.13
2017-08-14T04:00:33.444Z,29.90
2017-08-14T04:03:01.019Z,32.10
2017-08-14T04:05:28.572Z,31.37
2017-08-14T04:07:56.124Z,33.33
2017-08-14T04:10:23.907Z,33.40
2017-08-14T04:12:51.454Z,30.33
2017-08-14T04:15:19.008Z,33.60
2017-08-14T04:17:46.582Z,31.90
2017-08-14T04:20:15.048Z,29.73
2017-08-14T04:22:43.358Z,32.13
2017-08-14T04:25:10.935Z,39.77
2017-08-14T04:27:38.487Z,29.30
2017-08-14T04:30:06.022Z,33.17
2017-08-14T04:32:33.578Z,32.57
2017-08-14T04:35:01.885Z,38.03
2017-08-14T04:37:29.423Z,29.00
2017-08-14T04:39:57.007Z,30.93
2017-08-14T04:42:24.560Z,35.13
2017-08-14T04:44:52.106Z,32.13
2017-08-14T04:47:19.696Z,33.87
2017-08-14T04:49:47.255Z,32.63
2017-08-14T04:52:14.793Z,35.13
2017-08-14T04:54:42.375Z,26.57
2017-08-14T04:57:09.914Z,28.90
2017-08-14T04:59:38.225Z,29.13
2017-08-14T05:02:05.824Z,26.80
2017-08-14T05:04:33.368Z,32.40
2017-08-14T05:07:00.918Z,24.83
2017-08-14T05:09:28.490Z,29.83
2017-08-14T05:11:56.042Z,24.77
2017-08-14T05:14:23.577Z,28.40
2017-08-14T05:16:51.141Z,25.33
2017-08-14T05:19:18.675Z,28.00
2017-08-14T05:21:46.227Z,27.40
2017-08-14T05:24:13.798Z,26.27
2017-08-14T05:26:41.340Z,23.53
2017-08-14T05:29:08.881Z,25.70
2017-08-14T05:31:36.445Z,29.70
2017-08-14T05:34:04.005Z,23.23
2017-08-14T05:36:31.554Z,22.93
2017-08-14T05:38:59.134Z,23.03
2017-08-14T05:41:26.675Z,29.07
2017-08-14T05:43:54.228Z,24.50
2017-08-14T05:46:21.788Z,28.70
2017-08-14T05:48:49.342Z,29.10
2017-08-14T05:51:16.889Z,27.07
2017-08-14T05:53:44.460Z,23.13
2017-08-14T05:56:11.994Z,24.07
2017-08-14T05:58:39.522Z,23.50
2017-08-14T06:01:07.096Z,22.60
2017-08-14T06:03:34.633Z,24.17
2017-08-14T06:06:02.165Z,22.30
2017-08-14T06:08:29.738Z,24.43
2017-08-14T06:10:57.277Z,27.80
2017-08-14T06:13:25.598Z,23.40
2017-08-14T06:15:53.180Z,28.27
2017-08-14T06:18:20.732Z,23.50
2017-08-14T06:20:48.286Z,20.53
2017-08-14T06:23:15.880Z,22.40
2017-08-14T06:25:43.414Z,21.43
2017-08-14T06:28:10.953Z,21.30
2017-08-14T06:30:38.525Z,18.83
2017-08-14T06:33:06.060Z,19.37
2017-08-14T06:35:34.374Z,21.83
2017-08-14T06:38:01.954Z,18.70
2017-08-14T06:40:29.487Z,17.10
2017-08-14T06:42:57.029Z,17.23
2017-08-14T06:45:25.368Z,17.77
2017-08-14T06:47:52.924Z,19.60
2017-08-14T06:50:20.485Z,18.87
2017-08-14T06:52:48.074Z,17.77
2017-08-14T06:55:15.778Z,17.30
2017-08-14T06:57:43.420Z,14.90
2017-08-14T07:00:10.992Z,16.27
2017-08-14T07:02:38.559Z,16.23
2017-08-14T07:05:06.131Z,13.90
2017-08-14T07:07:33.734Z,17.30
2017-08-14T07:10:01.328Z,16.57
2017-08-14T07:12:28.922Z,13.50
2017-08-14T07:14:56.509Z,13.30
2017-08-14T07:17:24.059Z,11.60
2017-08-14T07:19:51.777Z,12.30
2017-08-14T07:22:19.357Z,13.10
2017-08-14T07:24:46.984Z,12.87
2017-08-14T07:29:46.299Z,14.57
2017-08-14T07:32:13.865Z,12.70
2017-08-14T07:34:41.428Z,14.20
2017-08-14T07:37:09.021Z,11.37
2017-08-14T07:39:36.569Z,20.10
2017-08-14T07:42:04.873Z,9.90
2017-08-14T07:44:32.472Z,9.53
2017-08-14T07:47:00.044Z,10.40
2017-08-14T07:49:27.600Z,17.97
2017-08-14T07:51:55.197Z,10.37
2017-08-14T07:54:22.730Z,13.17
2017-08-14T07:56:50.297Z,10.27
2017-08-14T07:59:17.871Z,10.23
2017-08-14T08:01:45.431Z,9.30
2017-08-14T08:04:12.986Z,11.00
2017-08-14T08:06:40.559Z,12.33
2017-08-14T08:09:08.085Z,9.73
2017-08-14T08:11:35.631Z,11.50
2017-08-14T08:14:03.205Z,17.13
2017-08-14T08:16:30.732Z,8.07
2017-08-14T08:18:59.045Z,11.43
2017-08-14T08:21:26.600Z,7.70
2017-08-14T08:23:54.143Z,9.57
2017-08-14T08:26:21.687Z,6.93
2017-08-14T08:28:50.012Z,12.30
2017-08-14T08:31:17.551Z,7.40
2017-08-14T08:33:45.085Z,13.40
2017-08-14T08:36:13.417Z,8.63
2017-08-14T08:38:40.968Z,6.57
2017-08-14T08:41:08.515Z,10.50
2017-08-14T08:43:36.091Z,11.30
2017-08-14T08:46:03.617Z,9.17
2017-08-14T08:48:31.928Z,9.57
2017-08-14T08:50:59.504Z,7.37
2017-08-14T08:53:27.039Z,9.10
2017-08-14T08:55:54.574Z,7.93
2017-08-14T08:58:22.901Z,6.53
2017-08-14T09:00:50.448Z,8.00
2017-08-14T09:03:17.981Z,6.70
2017-08-14T09:05:46.312Z,5.83
2017-08-14T09:08:13.837Z,5.97
2017-08-14T09:10:41.367Z,10.60
2017-08-14T09:13:08.951Z,8.90
2017-08-14T09:15:37.270Z,12.27
2017-08-14T09:18:04.821Z,6.20
2017-08-14T09:20:32.386Z,11.97
2017-08-14T09:22:59.922Z,8.20
2017-08-14T09:25:27.452Z,8.10
2017-08-14T09:27:55.029Z,6.23
2017-08-14T09:30:23.334Z,5.87
2017-08-14T09:32:50.886Z,8.50
2017-08-14T09:35:19.345Z,5.90
2017-08-14T09:37:46.982Z,5.57
2017-08-14T09:40:15.733Z,6.13
2017-08-14T09:42:43.344Z,5.10
2017-08-14T09:45:10.879Z,6.00
2017-08-14T09:47:38.432Z,6.10
2017-08-14T09:50:06.008Z,7.87
2017-08-14T09:52:33.547Z,7.07
2017-08-14T09:55:01.074Z,5.47
2017-08-14T09:57:29.403Z,7.23
2017-08-14T09:59:56.948Z,7.20
2017-08-14T10:02:24.503Z,8.23
2017-08-14T10:04:52.092Z,7.80
2017-08-14T10:07:19.638Z,6.20
2017-08-14T10:09:47.165Z,6.50
2017-08-14T10:12:15.494Z,6.90
2017-08-14T10:14:43.022Z,5.83
2017-08-14T10:17:10.558Z,7.23
2017-08-14T10:19:38.155Z,6.23
2017-08-14T10:22:05.681Z,9.83
2017-08-14T10:24:33.210Z,7.73
2017-08-14T10:27:00.774Z,6.40
2017-08-14T10:29:28.308Z,7.37
2017-08-14T10:31:55.838Z,11.10
2017-08-14T10:34:24.163Z,6.77
2017-08-14T10:36:51.696Z,7.37
2017-08-14T10:39:19.244Z,8.40
2017-08-14T10:41:47.590Z,6.10
2017-08-14T10:44:15.135Z,8.07
2017-08-14T10:46:42.706Z,5.47
2017-08-14T10:49:10.285Z,5.43
2017-08-14T10:51:37.811Z,4.73
2017-08-14T10:54:05.568Z,5.97
2017-08-14T10:56:33.140Z,4.40
2017-08-14T10:59:00.664Z,6.00
2017-08-14T11:01:28.953Z,5.27
2017-08-14T11:03:56.504Z,4.40
2017-08-14T11:06:24.812Z,4.63
2017-08-14T11:08:52.337Z,4.53
2017-08-14T11:11:19.932Z,5.57
2017-08-14T11:13:47.461Z,7.80
2017-08-14T11:16:15.756Z,21.43
2017-08-14T11:18:43.331Z,6.33
2017-08-14T11:21:10.861Z,8.37
2017-08-14T11:23:38.434Z,12.03
2017-08-14T11:26:06.778Z,5.60
2017-08-14T11:28:34.389Z,4.90
2017-08-14T11:31:03.225Z,5.20
2017-08-14T11:33:30.782Z,8.60
2017-08-14T11:35:58.313Z,8.17
2017-08-14T11:38:25.853Z,5.13
2017-08-14T11:40:54.190Z,9.27
2017-08-14T11:43:21.725Z,5.87
2017-08-14T11:45:49.275Z,8.50
2017-08-14T11:48:16.849Z,7.93
2017-08-14T11:50:44.386Z,5.73
2017-08-14T11:53:11.940Z,10.37
2017-08-14T11:55:40.280Z,10.90
2017-08-14T11:58:07.844Z,9.23
2017-08-14T12:00:35.379Z,7.77
2017-08-14T12:03:02.945Z,6.53
2017-08-14T12:05:30.473Z,5.40
2017-08-14T12:07:57.997Z,17.57
2017-08-14T12:10:25.559Z,5.63
2017-08-14T12:12:53.102Z,8.23
2017-08-14T12:15:20.641Z,5.63
2017-08-14T12:17:48.203Z,6.33
2017-08-14T12:20:15.729Z,6.33
2017-08-14T12:22:44.048Z,8.20
2017-08-14T12:25:11.625Z,17.77
2017-08-14T12:27:39.276Z,4.70
2017-08-14T12:30:06.833Z,9.30
2017-08-14T12:32:34.398Z,4.20
2017-08-14T12:35:01.951Z,4.30
2017-08-14T12:37:29.492Z,7.00
2017-08-14T12:39:57.050Z,7.93
2017-08-14T12:42:24.581Z,7.20
2017-08-14T12:44:52.118Z,6.77
2017-08-14T12:47:19.680Z,6.80
2017-08-14T12:49:47.208Z,5.73
2017-08-14T12:52:14.756Z,5.70
2017-08-14T12:54:43.085Z,4.63
2017-08-14T12:57:10.612Z,6.80
2017-08-14T12:59:38.160Z,11.80
2017-08-14T13:02:06.487Z,8.93
2017-08-14T13:04:34.039Z,7.40
2017-08-14T13:07:01.587Z,7.33
2017-08-14T13:09:29.179Z,5.50
2017-08-14T13:11:56.720Z,6.97
2017-08-14T13:14:24.249Z,11.40
2017-08-14T13:16:51.834Z,7.70
2017-08-14T13:19:19.372Z,8.07
2017-08-14T13:21:47.665Z,4.47
2017-08-14T13:24:15.236Z,5.30
2017-08-14T13:26:42.784Z,9.50
2017-08-14T13:29:10.324Z,7.87
2017-08-14T13:31:38.648Z,7.00
2017-08-14T13:34:06.179Z,7.03
2017-08-14T13:36:33.724Z,6.07
2017-08-14T13:39:02.391Z,9.20
2017-08-14T13:41:29.930Z,6.87
2017-08-14T13:43:57.485Z,7.57
2017-08-14T13:46:25.033Z,7.03
2017-08-14T13:48:52.575Z,6.17
2017-08-14T13:51:20.130Z,6.70
2017-08-14T13:53:47.698Z,5.80
2017-08-14T13:56:15.258Z,7.20
2017-08-14T13:58:43.549Z,5.43
2017-08-14T14:01:11.128Z,4.53
2017-08-14T14:03:38.671Z,4.40
2017-08-14T14:06:06.206Z,10.03
2017-08-14T14:08:34.547Z,4.70
2017-08-14T14:11:02.073Z,7.33
2017-08-14T14:13:29.595Z,5.27
2017-08-14T14:15:57.158Z,9.90
2017-08-14T14:18:24.704Z,4.43
2017-08-14T14:20:52.243Z,4.33
2017-08-14T14:23:20.635Z,8.63
2017-08-14T14:25:48.166Z,3.60
2017-08-14T14:28:15.712Z,3.70
2017-08-14T14:30:44.033Z,7.97
2017-08-14T14:33:11.574Z,3.87
2017-08-14T14:35:39.120Z,4.30
2017-08-14T14:38:06.694Z,4.80
2017-08-14T14:40:34.231Z,4.73
2017-08-14T14:43:02.529Z,4.20
2017-08-14T14:45:30.099Z,4.40
2017-08-14T14:47:58.276Z,6.03
2017-08-14T14:50:25.837Z,3.97
2017-08-14T14:52:53.401Z,3.57
2017-08-14T14:55:21.533Z,3.67
2017-08-14T14:57:49.084Z,8.07
2017-08-14T15:00:16.672Z,4.57
2017-08-14T15:02:44.971Z,8.80
2017-08-14T15:05:12.515Z,4.13
2017-08-14T15:07:41.107Z,3.53
2017-08-14T15:10:08.655Z,5.67
2017-08-14T15:12:36.953Z,8.80
2017-08-14T15:15:04.527Z,3.40
2017-08-14T15:17:32.053Z,4.73
2017-08-14T15:20:00.368Z,3.97
2017-08-14T15:22:27.948Z,5.33
2017-08-14T15:24:55.505Z,3.57
2017-08-14T15:27:23.050Z,7.17
2017-08-14T15:29:50.622Z,10.53
2017-08-14T15:32:18.163Z,9.07
2017-08-14T15:34:45.700Z,6.20
2017-08-14T15:37:13.270Z,7.00
2017-08-14T15:39:41.569Z,5.57
2017-08-14T15:42:09.127Z,6.27
2017-08-14T15:44:36.703Z,7.60
2017-08-14T15:47:04.228Z,4.80
2017-08-14T15:49:32.554Z,3.50
2017-08-14T15:52:00.156Z,4.53
2017-08-14T15:54:27.728Z,3.90
2017-08-14T15:56:55.283Z,4.00
2017-08-14T15:59:22.851Z,3.80
2017-08-14T16:01:50.383Z,4.50
2017-08-14T16:04:17.915Z,3.93
2017-08-14T16:06:45.491Z,9.13
2017-08-14T16:09:13.033Z,4.37
2017-08-14T16:11:40.563Z,6.37
2017-08-14T16:14:08.893Z,4.40
2017-08-14T16:16:36.443Z,4.93
2017-08-14T16:19:04.002Z,4.07
2017-08-14T16:21:31.556Z,3.80
2017-08-14T16:23:59.107Z,4.23
2017-08-14T16:26:26.637Z,5.30
2017-08-14T16:28:54.216Z,6.70
2017-08-14T16:31:22.523Z,5.00
2017-08-14T16:33:50.103Z,7.90
2017-08-14T16:36:17.702Z,5.53
2017-08-14T16:38:45.243Z,4.07
2017-08-14T16:41:12.779Z,7.20
2017-08-14T16:43:40.345Z,7.07
2017-08-14T16:46:07.875Z,4.90
2017-08-14T16:48:36.171Z,3.70
2017-08-14T16:51:03.754Z,4.50
2017-08-14T16:53:31.289Z,11.90
2017-08-14T16:55:58.817Z,6.17
2017-08-14T16:58:26.374Z,10.90
2017-08-14T17:00:53.916Z,4.83
2017-08-14T17:03:21.466Z,5.33
2017-08-14T17:05:49.022Z,4.00
2017-08-14T17:08:16.543Z,3.87
2017-08-14T17:10:44.084Z,4.23
2017-08-14T17:13:11.649Z,4.10
2017-08-14T17:15:39.971Z,5.10
2017-08-14T17:18:07.506Z,6.30
2017-08-14T17:20:35.850Z,5.10
2017-08-14T17:23:03.375Z,5.20
2017-08-14T17:25:30.925Z,6.50
2017-08-14T17:27:58.498Z,4.80
2017-08-14T17:30:26.051Z,4.20
2017-08-14T17:32:53.589Z,6.60
2017-08-14T17:35:22.669Z,6.90
2017-08-14T17:37:50.204Z,8.67
2017-08-14T17:40:17.755Z,8.73
2017-08-14T17:42:45.316Z,12.23
2017-08-14T17:45:12.840Z,7.10
2017-08-14T17:47:41.132Z,4.60
2017-08-14T17:50:08.712Z,10.83
2017-08-14T17:52:36.268Z,5.40
2017-08-14T17:55:03.808Z,4.20
2017-08-14T17:57:32.124Z,3.97
2017-08-14T17:59:59.682Z,3.70
2017-08-14T18:02:27.228Z,4.67
2017-08-14T18:04:54.785Z,7.10
2017-08-14T18:07:22.353Z,15.07
2017-08-14T18:09:49.919Z,7.30
2017-08-14T18:12:17.476Z,5.53
2017-08-14T18:14:45.035Z,6.30
2017-08-14T18:17:12.552Z,4.60
2017-08-14T18:19:40.109Z,4.60
2017-08-14T18:22:07.652Z,5.03
2017-08-14T18:24:35.201Z,5.13
2017-08-14T18:27:02.751Z,7.30
2017-08-14T18:29:30.281Z,4.33
2017-08-14T18:31:58.586Z,6.57
2017-08-14T18:34:26.162Z,5.47
2017-08-14T18:36:53.705Z,6.07
2017-08-14T18:39:21.233Z,4.33
2017-08-14T18:41:48.808Z,10.43
2017-08-14T18:44:17.134Z,4.70
2017-08-14T18:46:44.660Z,4.40
2017-08-14T18:49:12.236Z,3.40
2017-08-14T18:51:39.768Z,5.93
2017-08-14T18:54:08.069Z,7.00
2017-08-14T18:56:35.633Z,7.40
2017-08-14T18:59:03.187Z,6.00
2017-08-14T19:01:30.720Z,6.40
2017-08-14T19:03:58.301Z,5.40
2017-08-14T19:06:25.851Z,11.13
2017-08-14T19:08:56.116Z,7.17
2017-08-14T19:11:22.588Z,6.60
2017-08-14T19:13:50.143Z,6.37
2017-08-14T19:16:17.679Z,10.73
2017-08-14T19:18:45.240Z,7.47
2017-08-14T19:21:12.779Z,8.17
2017-08-14T19:23:40.304Z,5.73
2017-08-14T19:26:07.869Z,6.57
2017-08-14T19:28:35.407Z,5.80
2017-08-14T19:31:02.949Z,8.07
2017-08-14T19:33:30.509Z,4.70
2017-08-14T19:35:58.055Z,6.43
2017-08-14T19:38:25.585Z,5.00
2017-08-14T19:40:53.168Z,25.30
2017-08-14T19:43:20.711Z,7.47
2017-08-14T19:45:49.038Z,9.60
2017-08-14T19:48:16.615Z,11.30
2017-08-14T19:50:44.142Z,16.20
2017-08-14T19:53:11.777Z,6.20
2017-08-14T19:55:39.351Z,7.10
2017-08-14T19:58:07.648Z,6.97
2017-08-14T20:00:35.184Z,5.83
2017-08-14T20:03:02.778Z,12.40
2017-08-14T20:05:30.303Z,9.63
2017-08-14T20:07:58.619Z,8.50
2017-08-14T20:10:26.173Z,6.75
2017-08-14T20:12:53.713Z,8.13
2017-08-14T20:15:22.010Z,8.53
2017-08-14T20:17:49.597Z,11.17
2017-08-14T20:20:17.155Z,9.63
2017-08-14T20:22:44.689Z,8.30
2017-08-14T20:25:12.270Z,10.10
2017-08-14T20:27:39.796Z,8.50
2017-08-14T20:30:08.104Z,14.07
2017-08-14T20:32:35.674Z,7.40
2017-08-14T20:35:03.219Z,7.50
2017-08-14T20:37:30.767Z,11.97
2017-08-14T20:39:59.089Z,8.33
2017-08-14T20:42:26.633Z,8.23
2017-08-14T20:44:54.169Z,9.50
2017-08-14T20:47:22.521Z,7.13
2017-08-14T20:49:50.071Z,10.80
2017-08-14T20:52:17.600Z,9.60
2017-08-14T20:54:45.168Z,7.60
2017-08-14T20:57:12.697Z,9.33
2017-08-14T20:59:41.006Z,7.83
2017-08-14T21:02:08.587Z,11.53
2017-08-14T21:04:36.147Z,10.13
2017-08-14T21:07:03.723Z,11.90
2017-08-14T21:09:31.291Z,7.47
2017-08-14T21:11:58.832Z,9.07
2017-08-14T21:14:26.363Z,10.97
2017-08-14T21:16:53.925Z,9.67
2017-08-14T21:19:21.475Z,11.20
2017-08-14T21:21:49.764Z,12.03
2017-08-14T21:24:17.329Z,11.40
2017-08-14T21:26:44.856Z,19.03
2017-08-14T21:29:12.400Z,8.23
2017-08-14T21:31:39.987Z,8.00
2017-08-14T21:34:08.298Z,8.10
2017-08-14T21:36:35.836Z,9.90
2017-08-14T21:39:04.174Z,8.70
2017-08-14T21:41:31.725Z,17.47
2017-08-14T21:43:59.251Z,12.50
2017-08-14T21:46:26.818Z,10.90
2017-08-14T21:48:54.367Z,11.33
2017-08-14T21:51:22.656Z,9.27
2017-08-14T21:53:50.229Z,10.33
2017-08-14T21:56:17.756Z,6.80
2017-08-14T21:58:46.068Z,8.90
2017-08-14T22:01:13.646Z,10.33
2017-08-14T22:03:41.168Z,9.30
2017-08-14T22:06:09.463Z,8.40
2017-08-14T22:08:37.021Z,9.30
2017-08-14T22:11:04.561Z,12.53
2017-08-14T22:13:32.854Z,7.67
2017-08-14T22:16:00.428Z,8.83
2017-08-14T22:18:27.951Z,11.00
2017-08-14T22:20:55.472Z,7.43
2017-08-14T22:23:23.038Z,11.37
2017-08-14T22:25:50.573Z,9.17
2017-08-14T22:28:18.107Z,7.93
2017-08-14T22:30:46.438Z,14.13
2017-08-14T22:33:13.961Z,7.20
2017-08-14T22:35:42.278Z,8.50
2017-08-14T22:38:10.361Z,9.37
2017-08-14T22:40:37.896Z,11.97
2017-08-14T22:43:05.421Z,9.10
2017-08-14T22:45:32.979Z,12.90
2017-08-14T22:48:00.515Z,14.17
2017-08-14T22:50:28.061Z,9.83
2017-08-14T22:52:55.695Z,10.40
2017-08-14T22:55:24.011Z,11.27
2017-08-14T22:57:51.560Z,7.90
2017-08-14T23:00:19.139Z,9.90
2017-08-14T23:02:46.669Z,9.20
2017-08-14T23:05:14.228Z,11.80
2017-08-14T23:07:41.788Z,8.37
2017-08-14T23:10:09.340Z,9.30
2017-08-14T23:12:36.882Z,8.57
2017-08-14T23:15:05.214Z,12.73
2017-08-14T23:17:32.749Z,9.43
2017-08-14T23:20:00.299Z,15.97
2017-08-14T23:22:28.631Z,7.30
2017-08-14T23:24:56.176Z,9.73
2017-08-14T23:27:23.704Z,11.27
2017-08-14T23:29:52.044Z,8.40
2017-08-14T23:32:19.583Z,7.70
2017-08-14T23:34:47.113Z,11.93
2017-08-14T23:37:14.690Z,10.50
2017-08-14T23:39:42.216Z,7.77
2017-08-14T23:42:10.551Z,9.30
2017-08-14T23:44:38.100Z,10.90
2017-08-14T23:47:05.683Z,12.17
2017-08-14T23:49:33.234Z,20.40
2017-08-14T23:52:00.756Z,12.73
2017-08-14T23:54:29.100Z,11.20
2017-08-14T23:56:56.625Z,9.57
2017-08-14T23:59:24.188Z,12.30
